createdAt,value
2018-11-03T00:00:14.225Z,46.54
2018-11-03T00:05:17.705Z,46.30
2018-11-03T00:10:21.250Z,46.71
2018-11-03T00:15:24.707Z,46.81
2018-11-03T00:20:28.163Z,46.65
2018-11-03T00:25:31.630Z,46.61
2018-11-03T00:30:35.119Z,46.58
2018-11-03T00:35:38.612Z,46.55
2018-11-03T00:40:42.098Z,47.06
2018-11-03T00:45:45.559Z,47.04
2018-11-03T00:50:49.012Z,46.69
2018-11-03T00:55:52.447Z,46.72
2018-11-03T01:05:58.384Z,47.10
2018-11-03T01:11:01.902Z,46.97
2018-11-03T01:16:05.726Z,47.11
2018-11-03T01:21:09.462Z,46.91
2018-11-03T01:26:12.917Z,46.99
2018-11-03T01:31:16.348Z,47.33
2018-11-03T01:36:19.906Z,47.32
2018-11-03T01:41:23.352Z,47.37
2018-11-03T01:46:26.796Z,47.36
2018-11-03T01:51:30.294Z,47.30
2018-11-03T01:56:33.764Z,47.29
2018-11-03T02:01:37.213Z,47.33
2018-11-03T02:06:40.723Z,47.77
2018-11-03T02:11:44.215Z,47.50
2018-11-03T02:16:47.688Z,47.80
2018-11-03T02:21:51.183Z,47.78
2018-11-03T02:26:55.000Z,47.96
2018-11-03T02:31:58.457Z,47.81
2018-11-03T02:37:01.893Z,48.04
2018-11-03T02:42:05.484Z,47.88
2018-11-03T02:47:08.962Z,47.73
2018-11-03T02:52:12.465Z,47.96
2018-11-03T02:57:15.918Z,48.26
2018-11-03T03:02:19.364Z,48.40
2018-11-03T03:07:22.802Z,48.17
2018-11-03T03:12:26.290Z,48.29
2018-11-03T03:17:29.735Z,48.18
2018-11-03T03:22:33.203Z,48.37
2018-11-03T03:27:36.681Z,48.27
2018-11-03T03:32:40.284Z,48.40
2018-11-03T03:37:43.725Z,48.76
2018-11-03T03:42:47.161Z,48.61
2018-11-03T03:47:50.622Z,48.55
2018-11-03T03:52:54.067Z,48.67
2018-11-03T03:57:57.507Z,48.89
2018-11-03T04:03:00.949Z,48.87
2018-11-03T04:08:04.420Z,48.53
2018-11-03T04:13:07.866Z,48.82
2018-11-03T04:18:11.319Z,48.88
2018-11-03T04:23:14.773Z,48.75
2018-11-03T04:28:18.262Z,48.87
2018-11-03T04:33:21.734Z,48.95
2018-11-03T04:38:25.182Z,49.18
2018-11-03T04:43:28.614Z,48.94
2018-11-03T04:48:32.138Z,49.03
2018-11-03T04:53:35.578Z,49.11
2018-11-03T04:58:39.033Z,48.88
2018-11-03T05:03:42.494Z,49.35
2018-11-03T05:08:46.123Z,49.10
2018-11-03T05:13:49.577Z,49.32
2018-11-03T05:18:53.038Z,49.43
2018-11-03T05:23:56.511Z,49.22
2018-11-03T05:28:59.991Z,49.33
2018-11-03T05:34:03.447Z,49.70
2018-11-03T05:39:09.135Z,49.42
2018-11-03T05:44:13.041Z,49.44
2018-11-03T05:49:16.482Z,49.55
2018-11-03T05:54:20.033Z,49.80
2018-11-03T05:59:23.405Z,49.78
2018-11-03T06:04:26.872Z,49.54
2018-11-03T06:09:30.323Z,49.66
2018-11-03T06:14:33.771Z,49.81
2018-11-03T06:19:37.233Z,49.72
2018-11-03T06:24:40.830Z,50.28
2018-11-03T06:29:44.277Z,50.23
2018-11-03T06:34:47.725Z,50.08
2018-11-03T06:39:51.275Z,50.23
2018-11-03T06:44:54.735Z,50.28
2018-11-03T06:49:58.214Z,50.34
2018-11-03T06:55:01.684Z,50.56
2018-11-03T07:00:07.834Z,50.29
2018-11-03T07:05:11.382Z,49.42
2018-11-03T07:10:14.776Z,47.65
2018-11-03T07:15:18.255Z,46.99
2018-11-03T07:20:21.732Z,46.67
2018-11-03T07:25:25.182Z,45.92
2018-11-03T07:30:28.644Z,45.84
2018-11-03T07:35:32.080Z,46.69
2018-11-03T07:40:35.918Z,44.97
2018-11-03T07:45:39.421Z,44.80
2018-11-03T07:50:42.870Z,44.67
2018-11-03T07:55:46.317Z,44.67
2018-11-03T08:00:49.839Z,46.10
2018-11-03T08:05:53.292Z,45.55
2018-11-03T08:10:56.784Z,45.63
2018-11-03T08:16:00.249Z,45.79
2018-11-03T08:21:03.758Z,45.66
2018-11-03T08:26:07.226Z,45.39
2018-11-03T08:31:10.694Z,45.71
2018-11-03T08:36:14.213Z,45.17
2018-11-03T08:41:17.712Z,45.22
2018-11-03T08:46:21.221Z,41.58
2018-11-03T08:51:24.694Z,42.26
2018-11-03T08:56:28.161Z,43.05
2018-11-03T09:01:31.607Z,41.50
2018-11-03T09:06:35.301Z,41.30
2018-11-03T09:11:38.789Z,41.81
2018-11-03T09:16:42.274Z,42.46
2018-11-03T09:21:45.820Z,42.52
2018-11-03T09:26:49.231Z,42.58
2018-11-03T09:31:52.817Z,42.89
2018-11-03T09:36:56.186Z,43.32
2018-11-03T09:41:59.662Z,43.13
2018-11-03T09:47:03.127Z,42.99
2018-11-03T09:52:06.569Z,43.32
2018-11-03T09:57:10.019Z,43.56
2018-11-03T10:02:13.512Z,43.43
2018-11-03T10:07:16.994Z,43.77
2018-11-03T10:12:20.490Z,43.65
2018-11-03T10:17:24.020Z,43.91
2018-11-03T10:22:27.629Z,43.66
2018-11-03T10:27:30.950Z,44.08
2018-11-03T10:32:34.403Z,43.66
2018-11-03T10:37:37.982Z,43.57
2018-11-03T10:42:41.742Z,43.42
2018-11-03T10:47:45.568Z,43.64
2018-11-03T10:52:49.110Z,43.92
2018-11-03T10:57:52.567Z,43.61
2018-11-03T11:03:01.416Z,43.94
2018-11-03T11:08:10.666Z,43.64
2018-11-03T11:13:16.885Z,43.70
2018-11-03T11:18:20.394Z,43.13
2018-11-03T11:23:23.907Z,43.15
2018-11-03T11:28:27.346Z,43.76
2018-11-03T11:33:30.847Z,43.39
2018-11-03T11:44:02.318Z,44.78
2018-11-03T11:49:05.908Z,45.71
2018-11-03T11:54:09.358Z,46.99
2018-11-03T11:59:12.823Z,47.46
2018-11-03T12:04:16.278Z,47.75
2018-11-03T12:09:19.730Z,46.98
2018-11-03T12:14:23.204Z,46.44
2018-11-03T12:47:43.474Z,44.85
2018-11-03T12:52:47.176Z,45.14
2018-11-03T12:57:50.688Z,44.31
2018-11-03T13:02:54.171Z,43.88
2018-11-03T13:07:57.648Z,43.95
2018-11-03T13:13:01.111Z,43.68
2018-11-03T13:18:04.653Z,43.70
2018-11-03T13:23:08.103Z,44.30
2018-11-03T13:28:11.538Z,43.51
2018-11-03T13:33:14.992Z,43.75
2018-11-03T13:38:18.482Z,43.69
2018-11-03T13:43:21.998Z,43.18
2018-11-03T13:48:25.486Z,43.58
2018-11-03T13:53:29.015Z,43.50
2018-11-03T13:58:32.706Z,42.99
2018-11-03T14:03:36.179Z,43.57
2018-11-03T14:08:39.626Z,43.53
2018-11-03T14:13:43.116Z,43.68
2018-11-03T14:18:46.574Z,44.17
2018-11-03T14:23:50.079Z,44.08
2018-11-03T14:28:53.691Z,44.19
2018-11-03T14:33:57.150Z,44.06
2018-11-03T14:39:00.694Z,44.43
2018-11-03T14:44:04.149Z,44.19
2018-11-03T14:49:08.154Z,44.32
2018-11-03T14:54:11.683Z,44.42
2018-11-03T14:59:15.259Z,44.54
2018-11-03T15:04:18.727Z,44.91
2018-11-03T15:09:22.201Z,44.79
2018-11-03T15:14:25.980Z,45.09
2018-11-03T15:19:29.356Z,44.87
2018-11-03T15:24:32.854Z,45.07
2018-11-03T15:29:36.301Z,44.97
2018-11-03T15:34:39.740Z,45.34
2018-11-03T15:39:43.272Z,45.03
2018-11-03T15:44:47.157Z,45.06
2018-11-03T15:49:50.640Z,45.34
2018-11-03T15:54:54.173Z,44.96
2018-11-03T15:59:57.614Z,45.13
2018-11-03T16:05:01.148Z,45.42
2018-11-03T16:10:05.856Z,45.10
2018-11-03T16:15:10.673Z,45.38
2018-11-03T16:20:14.218Z,45.12
2018-11-03T16:25:17.710Z,44.78
2018-11-03T16:30:21.226Z,44.89
2018-11-03T16:35:24.722Z,45.23
2018-11-03T16:40:28.162Z,44.64
2018-11-03T16:45:31.838Z,45.46
2018-11-03T16:50:35.291Z,45.65
2018-11-03T16:55:38.884Z,46.18
2018-11-03T17:00:42.315Z,45.86
2018-11-03T17:05:45.768Z,45.75
2018-11-03T17:10:49.218Z,45.07
2018-11-03T17:15:52.678Z,44.42
2018-11-03T17:20:56.173Z,43.90
2018-11-03T17:25:59.610Z,43.92
2018-11-03T17:31:03.088Z,43.47
2018-11-03T17:36:06.626Z,43.85
2018-11-03T17:41:10.027Z,42.72
2018-11-03T17:46:13.472Z,42.56
2018-11-03T17:51:16.910Z,42.62
2018-11-03T17:56:20.433Z,42.58
2018-11-03T18:01:23.982Z,42.45
2018-11-03T18:06:27.455Z,43.01
2018-11-03T18:11:30.907Z,42.92
2018-11-03T18:16:34.430Z,42.93
2018-11-03T18:21:38.542Z,42.92
2018-11-03T18:26:42.097Z,42.67
2018-11-03T18:31:45.551Z,42.71
2018-11-03T18:36:49.126Z,43.23
2018-11-03T18:41:52.688Z,43.69
2018-11-03T18:46:56.164Z,43.93
2018-11-03T18:51:59.640Z,44.27
2018-11-03T18:57:03.102Z,43.50
2018-11-03T19:02:06.732Z,42.80
2018-11-03T19:07:10.191Z,42.63
2018-11-03T19:12:13.670Z,42.45
2018-11-03T19:17:17.177Z,43.18
2018-11-03T19:22:20.618Z,42.96
2018-11-03T19:27:24.055Z,43.04
2018-11-03T19:32:27.530Z,42.44
2018-11-03T19:37:30.965Z,42.79
2018-11-03T19:42:35.310Z,42.68
2018-11-03T19:47:38.749Z,43.21
2018-11-03T19:52:42.221Z,42.99
2018-11-03T19:57:45.691Z,43.31
2018-11-03T20:02:49.235Z,43.06
2018-11-03T20:07:52.838Z,42.83
2018-11-03T20:12:59.390Z,42.86
2018-11-03T20:18:02.976Z,43.00
2018-11-03T20:23:06.424Z,43.11
2018-11-03T20:28:09.887Z,42.94
2018-11-03T20:33:13.430Z,43.25
2018-11-03T20:38:16.975Z,43.64
2018-11-03T20:43:20.419Z,43.63
2018-11-03T20:48:23.882Z,43.75
2018-11-03T20:53:27.432Z,43.48
2018-11-03T20:58:30.883Z,43.33
2018-11-03T21:03:34.372Z,43.03
2018-11-03T21:08:37.874Z,44.04
2018-11-03T21:13:41.356Z,44.76
2018-11-03T21:18:44.890Z,44.33
2018-11-03T21:23:48.371Z,44.22
2018-11-03T21:28:51.793Z,44.36
2018-11-03T21:33:55.306Z,44.29
2018-11-03T21:38:58.761Z,44.57
2018-11-03T21:44:02.241Z,44.88
2018-11-03T21:49:05.880Z,44.63
2018-11-03T21:54:09.399Z,44.86
2018-11-03T21:59:12.857Z,44.74
2018-11-03T22:04:16.333Z,45.09
2018-11-03T22:09:20.553Z,45.38
2018-11-03T22:14:24.028Z,45.33
2018-11-03T22:19:27.518Z,45.68
2018-11-03T22:24:30.962Z,45.30
2018-11-03T22:29:34.417Z,45.48
2018-11-03T22:34:37.885Z,45.73
2018-11-03T22:39:41.350Z,45.62
2018-11-03T22:44:44.784Z,45.52
2018-11-03T22:49:48.223Z,45.73
2018-11-03T22:54:51.685Z,45.64
2018-11-03T22:59:55.116Z,45.96
2018-11-03T23:04:58.556Z,45.61
2018-11-03T23:10:02.859Z,45.72
2018-11-03T23:15:07.810Z,46.17
2018-11-03T23:20:12.868Z,46.13
2018-11-03T23:25:16.375Z,45.84
2018-11-03T23:30:20.118Z,45.98
2018-11-03T23:35:23.702Z,45.84
2018-11-03T23:40:27.388Z,46.20
2018-11-03T23:45:31.009Z,46.18
2018-11-03T23:50:34.761Z,46.37
2018-11-03T23:55:38.238Z,46.22
